createdAt,value
2023-04-02T00:00:16.795Z,3.10
2023-04-02T00:02:57.725Z,3.20
2023-04-02T00:05:54.944Z,2.90
2023-04-02T00:08:40.851Z,3.30
2023-04-02T00:11:10.641Z,3.03
2023-04-02T00:13:41.999Z,2.90
2023-04-02T00:16:17.927Z,3.37
2023-04-02T00:18:53.175Z,3.00
2023-04-02T00:21:25.460Z,3.10
2023-04-02T00:24:00.175Z,3.40
2023-04-02T00:26:33.086Z,2.87
2023-04-02T00:29:02.463Z,3.07
2023-04-02T00:31:31.834Z,3.30
2023-04-02T00:34:05.629Z,3.00
2023-04-02T00:36:35.508Z,2.80
2023-04-02T00:39:12.037Z,2.70
2023-04-02T00:41:47.094Z,2.70
2023-04-02T00:44:21.674Z,2.80
2023-04-02T00:46:51.032Z,2.43
2023-04-02T00:49:26.231Z,2.30
2023-04-02T00:51:59.696Z,2.40
2023-04-02T00:54:38.848Z,2.63
2023-04-02T00:57:16.467Z,3.00
2023-04-02T00:59:52.420Z,2.07
2023-04-02T01:02:28.474Z,2.30
2023-04-02T01:04:58.642Z,2.50
2023-04-02T01:07:52.499Z,2.47
2023-04-02T01:10:41.374Z,2.70
2023-04-02T01:13:21.158Z,2.20
2023-04-02T01:15:55.881Z,2.13
2023-04-02T01:18:34.698Z,2.50
2023-04-02T01:21:26.111Z,2.00
2023-04-02T01:24:01.589Z,2.07
2023-04-02T01:26:45.742Z,3.43
2023-04-02T01:29:17.460Z,3.93
2023-04-02T01:31:48.348Z,3.70
2023-04-02T01:34:23.842Z,3.13
2023-04-02T01:37:22.258Z,3.60
2023-04-02T01:40:21.595Z,3.50
2023-04-02T01:42:57.033Z,3.80
2023-04-02T01:45:27.072Z,4.43
2023-04-02T01:47:58.210Z,5.23
2023-04-02T01:50:32.237Z,4.30
2023-04-02T01:53:03.574Z,3.37
2023-04-02T01:55:36.121Z,3.50
2023-04-02T01:58:05.685Z,3.87
2023-04-02T02:00:38.390Z,4.20
2023-04-02T02:03:10.060Z,3.20
2023-04-02T02:05:38.784Z,3.27
2023-04-02T02:08:30.274Z,3.73
2023-04-02T02:10:59.189Z,3.53
2023-04-02T02:13:27.375Z,3.27
2023-04-02T02:16:00.391Z,3.20
2023-04-02T02:18:31.286Z,3.70
2023-04-02T02:21:02.065Z,3.60
2023-04-02T02:23:30.981Z,3.37
2023-04-02T02:25:59.932Z,3.43
2023-04-02T02:28:32.175Z,3.10
2023-04-02T02:31:05.826Z,3.03
2023-04-02T02:33:41.037Z,3.30
2023-04-02T02:36:20.648Z,3.43
2023-04-02T02:38:55.280Z,3.23
2023-04-02T02:41:34.666Z,3.37
2023-04-02T02:44:07.768Z,3.00
2023-04-02T02:46:41.618Z,3.37
2023-04-02T02:49:16.152Z,3.13
2023-04-02T02:51:52.231Z,3.97
2023-04-02T02:54:28.691Z,3.27
2023-04-02T02:57:01.663Z,3.07
2023-04-02T02:59:33.118Z,2.67
2023-04-02T03:02:05.385Z,2.40
2023-04-02T03:04:35.685Z,2.73
2023-04-02T03:07:10.527Z,2.63
2023-04-02T03:09:44.777Z,2.50
2023-04-02T03:12:36.147Z,2.53
2023-04-02T03:15:13.472Z,2.53
2023-04-02T03:17:49.345Z,2.73
2023-04-02T03:20:24.183Z,2.57
2023-04-02T03:22:57.680Z,2.07
2023-04-02T03:25:37.994Z,2.80
2023-04-02T03:28:15.618Z,2.30
2023-04-02T03:30:52.209Z,2.80
2023-04-02T03:33:27.293Z,2.10
2023-04-02T03:36:02.451Z,2.70
2023-04-02T03:38:34.967Z,2.17
2023-04-02T03:41:07.520Z,2.00
2023-04-02T03:43:41.595Z,2.57
2023-04-02T03:46:23.178Z,1.97
2023-04-02T03:48:55.874Z,2.57
2023-04-02T03:51:28.473Z,2.60
2023-04-02T03:53:57.353Z,2.20
2023-04-02T03:56:31.643Z,2.20
2023-04-02T03:59:12.096Z,2.13
2023-04-02T04:01:46.605Z,1.73
2023-04-02T04:04:19.805Z,2.10
2023-04-02T04:06:52.636Z,1.60
2023-04-02T04:09:26.205Z,2.13
2023-04-02T04:12:01.400Z,1.63
2023-04-02T04:14:34.437Z,1.97
2023-04-02T04:17:13.992Z,1.57
2023-04-02T04:19:49.642Z,1.50
2023-04-02T04:22:20.816Z,1.43
2023-04-02T04:24:53.190Z,1.57
2023-04-02T04:27:33.597Z,1.33
2023-04-02T04:30:18.245Z,1.70
2023-04-02T04:32:58.297Z,1.53
2023-04-02T04:35:35.169Z,1.30
2023-04-02T04:38:14.442Z,1.80
2023-04-02T04:40:50.391Z,1.50
2023-04-02T04:43:32.077Z,1.13
2023-04-02T04:46:04.412Z,1.77
2023-04-02T04:48:41.235Z,1.90
2023-04-02T04:51:20.548Z,1.50
2023-04-02T04:53:50.882Z,1.93
2023-04-02T04:56:26.845Z,1.50
2023-04-02T04:59:07.262Z,1.40
2023-04-02T05:01:41.817Z,1.67
2023-04-02T05:04:17.571Z,1.43
2023-04-02T05:06:54.712Z,2.07
2023-04-02T05:09:28.593Z,1.70
2023-04-02T05:12:04.848Z,1.73
2023-04-02T05:14:39.580Z,1.80
2023-04-02T05:17:15.466Z,2.20
2023-04-02T05:19:52.495Z,2.20
2023-04-02T05:22:29.330Z,1.70
2023-04-02T05:25:08.268Z,2.03
2023-04-02T05:27:42.620Z,1.50
2023-04-02T05:30:22.328Z,1.57
2023-04-02T05:32:57.571Z,1.47
2023-04-02T05:35:33.461Z,1.67
2023-04-02T05:38:04.018Z,1.57
2023-04-02T05:40:37.116Z,1.63
2023-04-02T05:43:11.717Z,1.50
2023-04-02T05:45:47.743Z,1.20
2023-04-02T05:48:23.793Z,1.33
2023-04-02T05:50:57.079Z,1.43
2023-04-02T05:53:35.437Z,1.60
2023-04-02T05:56:08.632Z,1.40
2023-04-02T05:58:44.059Z,1.17
2023-04-02T06:01:33.484Z,1.67
2023-04-02T06:04:14.412Z,1.37
2023-04-02T06:06:50.567Z,1.17
2023-04-02T06:09:28.679Z,1.13
2023-04-02T06:12:03.306Z,1.10
2023-04-02T06:14:34.655Z,1.40
2023-04-02T06:17:05.649Z,1.30
2023-04-02T06:19:39.360Z,1.53
2023-04-02T06:22:19.916Z,1.27
2023-04-02T06:24:56.066Z,1.50
2023-04-02T06:27:26.558Z,1.07
2023-04-02T06:30:01.012Z,1.37
2023-04-02T06:32:31.797Z,1.50
2023-04-02T06:35:00.142Z,1.47
2023-04-02T06:37:34.642Z,1.10
2023-04-02T06:40:35.794Z,1.17
2023-04-02T06:43:36.102Z,1.67
2023-04-02T06:46:24.434Z,2.23
2023-04-02T06:49:15.688Z,1.40
2023-04-02T06:51:48.620Z,1.20
2023-04-02T06:54:18.937Z,1.33
2023-04-02T06:56:53.841Z,1.30
2023-04-02T06:59:29.287Z,1.03
2023-04-02T07:02:03.520Z,1.43
2023-04-02T07:04:34.942Z,1.17
2023-04-02T07:07:05.782Z,1.23
2023-04-02T07:09:38.358Z,1.40
2023-04-02T07:12:14.604Z,1.47
2023-04-02T07:14:47.901Z,1.20
2023-04-02T07:17:18.015Z,1.27
2023-04-02T07:19:50.216Z,1.30
2023-04-02T07:22:21.298Z,1.23
2023-04-02T07:24:53.666Z,1.47
2023-04-02T07:27:23.165Z,1.23
2023-04-02T07:29:51.297Z,1.42
2023-04-02T07:32:19.914Z,1.33
2023-04-02T07:34:50.606Z,1.10
2023-04-02T07:37:18.743Z,1.27
2023-04-02T07:39:46.933Z,1.42
2023-04-02T07:42:15.034Z,1.50
2023-04-02T07:44:47.094Z,1.30
2023-04-02T07:47:17.755Z,1.10
2023-04-02T07:49:46.016Z,0.83
2023-04-02T07:52:16.673Z,1.07
2023-04-02T07:54:45.011Z,1.63
2023-04-02T07:57:15.571Z,1.13
2023-04-02T07:59:43.742Z,1.50
2023-04-02T08:02:21.142Z,1.33
2023-04-02T08:04:51.172Z,1.17
2023-04-02T08:07:19.939Z,0.90
2023-04-02T08:09:48.093Z,0.80
2023-04-02T08:12:19.705Z,1.00
2023-04-02T08:14:47.824Z,1.17
2023-04-02T08:17:19.537Z,1.00
2023-04-02T08:19:55.125Z,1.03
2023-04-02T08:22:23.672Z,0.83
2023-04-02T08:24:51.843Z,1.13
2023-04-02T08:27:22.265Z,0.83
2023-04-02T08:29:50.924Z,1.10
2023-04-02T08:32:21.996Z,1.27
2023-04-02T08:34:51.215Z,0.80
2023-04-02T08:37:21.561Z,1.10
2023-04-02T08:39:52.275Z,1.10
2023-04-02T08:42:24.475Z,1.20
2023-04-02T08:45:21.183Z,1.10
2023-04-02T08:47:56.026Z,0.90
2023-04-02T08:50:31.006Z,0.87
2023-04-02T08:53:00.495Z,0.90
2023-04-02T08:55:36.187Z,1.10
2023-04-02T08:58:14.915Z,0.73
2023-04-02T09:00:45.194Z,0.73
2023-04-02T09:03:19.205Z,0.90
2023-04-02T09:05:51.786Z,0.90
2023-04-02T09:08:24.586Z,0.70
2023-04-02T09:10:58.134Z,1.00
2023-04-02T09:13:28.706Z,0.83
2023-04-02T09:16:03.655Z,0.80
2023-04-02T09:18:33.973Z,0.90
2023-04-02T09:21:19.753Z,1.20
2023-04-02T09:23:48.565Z,1.00
2023-04-02T09:26:23.559Z,1.37
2023-04-02T09:28:54.176Z,0.80
2023-04-02T09:31:31.027Z,1.10
2023-04-02T09:34:02.976Z,1.20
2023-04-02T09:36:37.122Z,0.80
2023-04-02T09:39:08.312Z,1.13
2023-04-02T09:41:38.799Z,1.10
2023-04-02T09:44:21.591Z,1.10
2023-04-02T09:46:55.289Z,0.97
2023-04-02T09:49:29.844Z,1.30
2023-04-02T09:52:20.329Z,1.07
2023-04-02T09:55:22.772Z,1.03
2023-04-02T09:58:11.898Z,0.87
2023-04-02T10:00:51.888Z,0.80
2023-04-02T10:03:25.607Z,1.33
2023-04-02T10:06:09.917Z,0.77
2023-04-02T10:08:41.521Z,1.00
2023-04-02T10:11:13.529Z,0.90
2023-04-02T10:13:52.269Z,0.80
2023-04-02T10:16:27.057Z,1.03
2023-04-02T10:19:00.998Z,1.47
2023-04-02T10:21:37.020Z,1.10
2023-04-02T10:24:14.383Z,1.10
2023-04-02T10:27:06.006Z,1.00
2023-04-02T10:30:11.341Z,1.10
2023-04-02T10:32:46.885Z,1.13
2023-04-02T10:35:27.204Z,1.17
2023-04-02T10:38:14.557Z,0.90
2023-04-02T10:40:50.103Z,1.13
2023-04-02T10:43:50.017Z,0.90
2023-04-02T10:46:25.931Z,1.17
2023-04-02T10:49:08.049Z,1.43
2023-04-02T10:51:45.765Z,1.27
2023-04-02T10:54:32.668Z,1.00
2023-04-02T10:57:14.516Z,1.40
2023-04-02T10:59:49.686Z,1.27
2023-04-02T11:02:36.768Z,1.20
2023-04-02T11:05:27.007Z,1.40
2023-04-02T11:08:03.876Z,1.90
2023-04-02T11:10:41.414Z,1.83
2023-04-02T11:13:19.237Z,1.40
2023-04-02T11:15:47.435Z,1.40
2023-04-02T11:18:25.544Z,1.40
2023-04-02T11:21:06.394Z,1.53
2023-04-02T11:24:00.426Z,1.07
2023-04-02T11:26:38.495Z,1.17
2023-04-02T11:29:28.079Z,0.90
2023-04-02T11:32:32.354Z,1.37
2023-04-02T11:35:36.697Z,0.90
2023-04-02T11:38:54.863Z,0.90
2023-04-02T11:42:03.424Z,1.00
2023-04-02T11:44:35.418Z,0.80
2023-04-02T11:47:23.945Z,0.80
2023-04-02T11:50:05.978Z,1.13
2023-04-02T11:52:39.922Z,0.83
2023-04-02T11:55:31.858Z,0.67
2023-04-02T11:58:23.318Z,0.97
2023-04-02T12:01:39.122Z,0.87
2023-04-02T12:04:46.288Z,0.87
2023-04-02T12:07:55.007Z,0.83
2023-04-02T12:10:35.011Z,0.90
2023-04-02T12:13:05.231Z,0.90
2023-04-02T12:15:46.530Z,1.03
2023-04-02T12:18:24.417Z,1.20
2023-04-02T12:20:58.344Z,0.63
2023-04-02T12:23:31.794Z,0.87
2023-04-02T12:26:04.007Z,0.97
2023-04-02T12:28:39.649Z,1.33
2023-04-02T12:31:28.208Z,1.23
2023-04-02T12:34:03.173Z,0.80
2023-04-02T12:36:35.151Z,0.80
2023-04-02T12:39:05.515Z,1.10
2023-04-02T12:41:39.149Z,0.87
2023-04-02T12:44:23.077Z,1.07
2023-04-02T12:46:55.026Z,1.37
2023-04-02T12:49:38.823Z,0.90
2023-04-02T12:52:11.352Z,0.80
2023-04-02T12:54:49.545Z,1.10
2023-04-02T12:57:26.084Z,1.20
2023-04-02T12:59:58.262Z,1.10
2023-04-02T13:02:34.260Z,0.83
2023-04-02T13:05:11.959Z,0.90
2023-04-02T13:07:55.294Z,0.80
2023-04-02T13:10:27.908Z,0.90
2023-04-02T13:12:59.391Z,0.90
2023-04-02T13:15:37.090Z,0.83
2023-04-02T13:18:22.506Z,0.70
2023-04-02T13:21:01.620Z,0.90
2023-04-02T13:23:37.866Z,0.80
2023-04-02T13:26:19.453Z,0.73
2023-04-02T13:29:00.121Z,0.97
2023-04-02T13:31:30.557Z,0.80
2023-04-02T13:34:01.256Z,0.80
2023-04-02T13:36:35.921Z,0.80
2023-04-02T13:39:07.192Z,0.83
2023-04-02T13:41:43.976Z,0.80
2023-04-02T13:44:25.723Z,0.70
2023-04-02T13:47:03.079Z,0.70
2023-04-02T13:49:34.324Z,0.77
2023-04-02T13:52:06.175Z,0.87
2023-04-02T13:54:46.107Z,1.27
2023-04-02T13:57:17.012Z,0.77
2023-04-02T13:59:49.326Z,0.60
2023-04-02T14:02:26.386Z,0.70
2023-04-02T14:05:09.801Z,1.20
2023-04-02T14:07:53.450Z,1.00
2023-04-02T14:10:32.148Z,0.90
2023-04-02T14:13:15.402Z,0.90
2023-04-02T14:16:02.375Z,0.90
2023-04-02T14:18:48.467Z,0.70
2023-04-02T14:21:31.706Z,0.83
2023-04-02T14:24:19.728Z,0.60
2023-04-02T14:27:03.574Z,1.10
2023-04-02T14:29:43.629Z,0.70
2023-04-02T14:32:21.372Z,0.90
2023-04-02T14:35:01.795Z,0.90
2023-04-02T14:37:41.861Z,0.93
2023-04-02T14:40:24.805Z,0.90
2023-04-02T14:43:03.627Z,0.73
2023-04-02T14:45:56.403Z,1.10
2023-04-02T14:48:48.108Z,1.00
2023-04-02T14:51:27.897Z,0.80
2023-04-02T14:54:06.130Z,0.87
2023-04-02T14:56:47.105Z,1.00
2023-04-02T14:59:32.996Z,0.97
2023-04-02T15:02:11.212Z,0.80
2023-04-02T15:04:46.471Z,0.83
2023-04-02T15:07:24.695Z,0.90
2023-04-02T15:10:03.175Z,0.60
2023-04-02T15:12:38.369Z,1.10
2023-04-02T15:15:24.401Z,1.30
2023-04-02T15:18:18.587Z,1.00
2023-04-02T15:21:02.436Z,1.00
2023-04-02T15:23:46.968Z,1.10
2023-04-02T15:26:28.299Z,0.90
2023-04-02T15:29:13.239Z,1.00
2023-04-02T15:31:49.665Z,0.80
2023-04-02T15:34:27.665Z,0.80
2023-04-02T15:37:15.034Z,0.97
2023-04-02T15:40:22.254Z,0.97
2023-04-02T15:43:01.176Z,0.90
2023-04-02T15:45:48.878Z,0.60
2023-04-02T15:49:00.097Z,0.70
2023-04-02T15:51:58.503Z,1.00
2023-04-02T15:54:50.803Z,0.83
2023-04-02T15:57:47.764Z,1.10
2023-04-02T16:00:27.342Z,0.87
2023-04-02T16:03:42.891Z,1.00
2023-04-02T16:06:33.214Z,1.00
2023-04-02T16:09:19.880Z,1.03
2023-04-02T16:11:49.601Z,0.83
2023-04-02T16:14:25.137Z,0.80
2023-04-02T16:17:03.891Z,0.80
2023-04-02T16:19:45.891Z,0.90
2023-04-02T16:22:20.689Z,0.60
2023-04-02T16:24:58.646Z,0.70
2023-04-02T16:27:34.396Z,0.53
2023-04-02T16:30:23.416Z,0.97
2023-04-02T16:33:07.532Z,0.77
2023-04-02T16:35:46.202Z,0.80
2023-04-02T16:38:26.956Z,1.00
2023-04-02T16:41:08.939Z,0.70
2023-04-02T16:43:45.892Z,0.90
2023-04-02T16:46:38.286Z,0.83
2023-04-02T16:49:21.231Z,1.00
2023-04-02T16:52:07.932Z,0.60
2023-04-02T16:54:43.811Z,0.77
2023-04-02T16:57:29.954Z,0.47
2023-04-02T17:00:11.022Z,0.60
2023-04-02T17:02:50.395Z,0.80
2023-04-02T17:05:30.896Z,0.77
2023-04-02T17:08:16.750Z,0.53
2023-04-02T17:10:52.058Z,1.20
2023-04-02T17:13:29.862Z,0.50
2023-04-02T17:16:19.919Z,0.80
2023-04-02T17:18:50.100Z,0.60
2023-04-02T17:21:23.096Z,0.70
2023-04-02T17:23:56.814Z,0.50
2023-04-02T17:26:28.977Z,0.80
2023-04-02T17:28:59.776Z,0.97
2023-04-02T17:31:34.297Z,0.60
2023-04-02T17:34:11.632Z,0.80
2023-04-02T17:36:46.031Z,0.60
2023-04-02T17:39:23.135Z,0.63
2023-04-02T17:42:00.571Z,0.70
2023-04-02T17:44:42.085Z,0.70
2023-04-02T17:47:18.704Z,0.70
2023-04-02T17:49:57.921Z,0.67
2023-04-02T17:52:31.789Z,0.50
2023-04-02T17:55:10.776Z,0.40
2023-04-02T17:57:55.064Z,0.60
2023-04-02T18:00:46.745Z,0.53
2023-04-02T18:03:36.077Z,1.03
2023-04-02T18:06:11.482Z,1.67
2023-04-02T18:08:50.115Z,2.10
2023-04-02T18:11:32.358Z,1.13
2023-04-02T18:14:01.957Z,1.63
2023-04-02T18:16:44.159Z,2.20
2023-04-02T18:19:17.821Z,2.07
2023-04-02T18:21:55.883Z,2.53
2023-04-02T18:24:42.627Z,2.40
2023-04-02T18:27:25.729Z,2.47
2023-04-02T18:30:05.245Z,2.47
2023-04-02T18:32:59.143Z,3.07
2023-04-02T18:35:30.714Z,2.00
2023-04-02T18:38:18.039Z,3.00
2023-04-02T18:41:03.743Z,3.37
2023-04-02T18:43:44.876Z,3.10
2023-04-02T18:46:28.035Z,2.50
2023-04-02T18:49:00.065Z,2.50
2023-04-02T18:51:33.322Z,4.43
2023-04-02T18:54:12.062Z,4.93
2023-04-02T18:56:43.500Z,2.67
2023-04-02T18:59:31.342Z,2.20
2023-04-02T19:02:01.583Z,1.73
2023-04-02T19:04:33.715Z,1.30
2023-04-02T19:07:05.850Z,1.87
2023-04-02T19:09:37.323Z,2.13
2023-04-02T19:12:15.760Z,1.50
2023-04-02T19:14:45.516Z,1.27
2023-04-02T19:17:18.259Z,1.37
2023-04-02T19:20:01.464Z,1.30
2023-04-02T19:22:39.713Z,1.40
2023-04-02T19:25:31.573Z,1.23
2023-04-02T19:28:13.289Z,1.80
2023-04-02T19:31:25.389Z,2.10
2023-04-02T19:34:03.743Z,2.83
2023-04-02T19:36:48.332Z,2.60
2023-04-02T19:39:40.008Z,3.07
2023-04-02T19:42:17.569Z,3.20
2023-04-02T19:44:51.239Z,3.93
2023-04-02T19:47:20.973Z,8.70
2023-04-02T19:49:50.751Z,7.20
2023-04-02T19:52:19.505Z,4.60
2023-04-02T19:54:47.862Z,2.63
2023-04-02T19:57:17.632Z,3.10
2023-04-02T19:59:45.806Z,1.40
2023-04-02T20:02:16.224Z,1.20
2023-04-02T20:04:44.931Z,2.60
2023-04-02T20:07:15.953Z,1.70
2023-04-02T20:09:46.140Z,1.80
2023-04-02T20:12:16.160Z,1.47
2023-04-02T20:14:44.690Z,1.83
2023-04-02T20:17:12.942Z,1.97
2023-04-02T20:19:41.318Z,3.00
2023-04-02T20:22:09.508Z,2.20
2023-04-02T20:24:39.029Z,2.20
2023-04-02T20:27:09.376Z,2.23
2023-04-02T20:29:37.559Z,2.93
2023-04-02T20:32:05.994Z,2.87
2023-04-02T20:34:34.210Z,2.30
2023-04-02T20:37:02.419Z,1.97
2023-04-02T20:39:30.548Z,1.03
2023-04-02T20:42:02.816Z,1.03
2023-04-02T20:44:31.912Z,1.10
2023-04-02T20:47:00.005Z,0.80
2023-04-02T20:49:28.189Z,0.93
2023-04-02T20:51:58.666Z,1.20
2023-04-02T20:54:27.242Z,1.03
2023-04-02T20:56:55.533Z,1.40
2023-04-02T20:59:25.117Z,1.77
2023-04-02T21:01:53.498Z,1.90
2023-04-02T21:04:21.985Z,2.40
2023-04-02T21:06:57.088Z,2.60
2023-04-02T21:09:25.416Z,3.57
2023-04-02T21:11:53.539Z,3.13
2023-04-02T21:14:21.687Z,2.60
2023-04-02T21:16:51.289Z,6.03
2023-04-02T21:19:19.368Z,3.53
2023-04-02T21:21:47.460Z,1.43
2023-04-02T21:24:17.049Z,1.20
2023-04-02T21:26:46.457Z,1.60
2023-04-02T21:29:14.828Z,1.40
2023-04-02T21:31:43.783Z,1.80
2023-04-02T21:34:17.819Z,1.93
2023-04-02T21:36:47.768Z,1.77
2023-04-02T21:39:18.941Z,1.00
2023-04-02T21:41:50.050Z,0.90
2023-04-02T21:44:19.886Z,1.10
2023-04-02T21:46:53.124Z,1.33
2023-04-02T21:49:27.210Z,1.27
2023-04-02T21:51:58.030Z,1.03
2023-04-02T21:54:29.007Z,1.27
2023-04-02T21:56:59.917Z,1.00
2023-04-02T21:59:28.119Z,1.17
2023-04-02T22:01:58.440Z,1.63
2023-04-02T22:04:30.711Z,1.03
2023-04-02T22:06:59.063Z,1.23
2023-04-02T22:09:28.209Z,1.37
2023-04-02T22:11:59.009Z,1.27
2023-04-02T22:14:27.922Z,1.20
2023-04-02T22:16:56.295Z,1.20
2023-04-02T22:19:24.843Z,1.10
2023-04-02T22:21:54.327Z,1.00
2023-04-02T22:24:25.395Z,1.80
2023-04-02T22:26:54.161Z,1.67
2023-04-02T22:29:24.749Z,1.23
2023-04-02T22:31:55.279Z,1.50
2023-04-02T22:34:23.404Z,1.03
2023-04-02T22:36:53.038Z,1.03
2023-04-02T22:39:22.543Z,1.07
2023-04-02T22:41:50.771Z,0.90
2023-04-02T22:44:18.876Z,1.53
2023-04-02T22:46:49.261Z,1.50
2023-04-02T22:49:19.249Z,1.40
2023-04-02T22:51:47.937Z,1.17
2023-04-02T22:54:16.177Z,1.63
2023-04-02T22:56:48.115Z,1.00
2023-04-02T22:59:16.319Z,1.07
2023-04-02T23:01:44.858Z,1.00
2023-04-02T23:04:13.216Z,1.00
2023-04-02T23:06:43.628Z,1.17
2023-04-02T23:09:11.856Z,1.47
2023-04-02T23:11:42.111Z,1.10
2023-04-02T23:14:13.957Z,1.20
2023-04-02T23:16:42.567Z,1.20
2023-04-02T23:19:10.908Z,1.23
2023-04-02T23:21:41.388Z,1.20
2023-04-02T23:24:11.911Z,1.00
2023-04-02T23:26:40.493Z,1.20
2023-04-02T23:29:08.783Z,1.40
2023-04-02T23:31:38.606Z,1.17
2023-04-02T23:34:11.011Z,1.33
2023-04-02T23:36:41.261Z,1.43
2023-04-02T23:39:12.812Z,0.80
2023-04-02T23:41:42.137Z,1.33
2023-04-02T23:44:11.137Z,1.23
2023-04-02T23:46:43.255Z,2.40
2023-04-02T23:49:14.002Z,1.27
2023-04-02T23:51:42.312Z,1.00
2023-04-02T23:54:12.300Z,1.13
2023-04-02T23:56:43.052Z,1.00
2023-04-02T23:59:11.349Z,1.30
